Pleasure Ridge Park, Kentucky
Current Conditions -  °F | °C
As of 8:56 AM on Wednesday 26 Nov 2014 (Local Time) from KSDF Reporting Station
Haze Haze  
Wind Chill: 30°   Ceiling: 2700
Heat Index: 30°   Visibility: 5mi
Dew Point: 26°   Wind: 3mph
Humidity: 85%   Direction: 10°N
Pressure: 30.14"   Gusts: NA
Location:  38.14°N, 85.84°W
Report Text: KSDF 261356Z 01003KT 5SM BR BKN027 M01/M03 A3014 RMK AO2 SLP211 T10111033
Loading
Personal Weather Stations






























Interactive Weather Map New forecast layout! Learn more

10-Day Weather Forecast

Advertisements
Track Severe Weather on mobile